Columbus, North Dakota
Current Conditions -  °F | °C
As of 7:00 PM on Tuesday 25 Nov 2014 (Local Time) from CYEN Reporting Station
Light Snow Light Snow  
Wind Chill:   Ceiling: 3000
Heat Index: 14°   Visibility: 15mi
Dew Point: 10°   Wind: 9mph
Humidity: 86%   Direction: 40°NE
Pressure: 30.04"   Gusts: NA
Location:  48.9°N, 102.78°W
Report Text: CYEN 260100Z 04008KT 15SM -SN BKN030 M10/M12 A3004 RMK SC7SLP211
Loading
Personal Weather Stations






























Interactive Weather Map New forecast layout! Learn more

10-Day Weather Forecast

Advertisements
Track Severe Weather on mobile